createdAt,value
2017-07-12T00:00:22.722Z,23.87
2017-07-12T00:00:48.320Z,23.85
2017-07-12T00:01:13.893Z,23.92
2017-07-12T00:01:39.538Z,23.8
2017-07-12T00:02:05.200Z,23.87
2017-07-12T00:02:30.900Z,23.87
2017-07-12T00:02:56.466Z,23.86
2017-07-12T00:03:22.011Z,23.87
2017-07-12T00:03:47.599Z,23.8
2017-07-12T00:04:13.161Z,23.87
2017-07-12T00:04:38.769Z,23.8
2017-07-12T00:05:04.291Z,23.87
2017-07-12T00:05:29.856Z,23.89
2017-07-12T00:05:55.453Z,23.87
2017-07-12T00:06:21.038Z,23.79
2017-07-12T00:06:46.603Z,23.87
2017-07-12T00:07:12.195Z,23.85
2017-07-12T00:07:37.774Z,23.94
2017-07-12T00:08:03.363Z,23.87
2017-07-12T00:08:28.983Z,23.83
2017-07-12T00:08:54.629Z,23.83
2017-07-12T00:09:20.184Z,23.83
2017-07-12T00:09:45.749Z,23.83
2017-07-12T00:10:11.309Z,23.83
2017-07-12T00:10:36.869Z,23.85
2017-07-12T00:11:02.425Z,23.94
2017-07-12T00:11:28.092Z,23.77
2017-07-12T00:11:53.652Z,23.8
2017-07-12T00:12:19.225Z,23.86
2017-07-12T00:12:44.789Z,23.92
2017-07-12T00:13:10.456Z,23.85
2017-07-12T00:13:36.012Z,23.82
2017-07-12T00:14:01.561Z,23.9
2017-07-12T00:14:27.138Z,23.86
2017-07-12T00:14:52.697Z,23.83
2017-07-12T00:15:18.250Z,23.83
2017-07-12T00:15:43.836Z,23.86
2017-07-12T00:16:09.422Z,23.87
2017-07-12T00:16:34.998Z,23.8
2017-07-12T00:17:00.604Z,23.89
2017-07-12T00:17:26.159Z,23.85
2017-07-12T00:17:51.716Z,23.89
2017-07-12T00:18:17.401Z,23.9
2017-07-12T00:18:42.962Z,23.85
2017-07-12T00:19:08.531Z,23.83
2017-07-12T00:19:34.081Z,23.87
2017-07-12T00:19:59.695Z,23.77
2017-07-12T00:20:25.248Z,23.83
2017-07-12T00:20:50.814Z,23.85
2017-07-12T00:21:16.361Z,23.85
2017-07-12T00:21:41.913Z,23.83
2017-07-12T00:22:07.521Z,23.92
2017-07-12T00:22:33.090Z,23.87
2017-07-12T00:22:58.642Z,23.85
2017-07-12T00:23:24.216Z,23.76
2017-07-12T00:23:49.791Z,23.76
2017-07-12T00:24:15.345Z,23.92
2017-07-12T00:24:40.899Z,23.89
2017-07-12T00:25:06.468Z,23.86
2017-07-12T00:25:32.043Z,23.85
2017-07-12T00:25:57.765Z,23.87
2017-07-12T00:26:23.349Z,23.85
2017-07-12T00:26:48.912Z,23.89
2017-07-12T00:27:14.487Z,23.85
2017-07-12T00:27:40.037Z,23.8
2017-07-12T00:28:05.625Z,23.83
2017-07-12T00:28:31.208Z,23.79
2017-07-12T00:28:56.853Z,23.9
2017-07-12T00:29:22.444Z,23.9
2017-07-12T00:29:48.021Z,23.9
2017-07-12T00:30:13.585Z,23.9
2017-07-12T00:30:39.140Z,23.87
2017-07-12T00:31:04.714Z,23.85
2017-07-12T00:31:30.273Z,23.8
2017-07-12T00:31:55.942Z,23.89
2017-07-12T00:32:21.496Z,23.85
2017-07-12T00:32:47.064Z,23.79
2017-07-12T00:33:12.619Z,23.85
2017-07-12T00:33:38.185Z,23.86
2017-07-12T00:34:03.764Z,23.86
2017-07-12T00:34:29.333Z,23.87
2017-07-12T00:34:54.916Z,23.9
2017-07-12T00:35:20.476Z,23.79
2017-07-12T00:35:46.125Z,23.86
2017-07-12T00:36:11.671Z,23.85
2017-07-12T00:36:37.228Z,23.87
2017-07-12T00:37:02.803Z,23.83
2017-07-12T00:37:28.378Z,23.8
2017-07-12T00:37:53.964Z,23.85
2017-07-12T00:38:19.550Z,23.76
2017-07-12T00:38:45.115Z,23.82
2017-07-12T00:39:10.692Z,23.85
2017-07-12T00:39:36.251Z,23.86
2017-07-12T00:40:01.818Z,23.87
2017-07-12T00:40:27.376Z,23.87
2017-07-12T00:40:53.027Z,23.82
2017-07-12T00:41:18.606Z,23.87
2017-07-12T00:41:44.205Z,23.87
2017-07-12T00:42:09.795Z,23.83
2017-07-12T00:42:35.347Z,23.86
2017-07-12T00:43:00.906Z,23.85
2017-07-12T00:43:26.476Z,23.89
2017-07-12T00:43:52.020Z,23.82
2017-07-12T00:44:17.626Z,23.8
2017-07-12T00:44:43.181Z,23.83
2017-07-12T00:45:08.779Z,23.86
2017-07-12T00:45:34.350Z,23.77
2017-07-12T00:45:59.958Z,23.86
2017-07-12T00:46:25.527Z,23.89
2017-07-12T00:46:51.083Z,23.79
2017-07-12T00:47:16.654Z,23.85
2017-07-12T00:47:42.263Z,23.76
2017-07-12T00:48:07.841Z,23.83
2017-07-12T00:48:33.453Z,23.85
2017-07-12T00:48:59.035Z,23.89
2017-07-12T00:49:24.601Z,23.76
2017-07-12T00:49:50.153Z,23.87
2017-07-12T00:50:15.714Z,23.86
2017-07-12T00:50:41.274Z,23.79
2017-07-12T00:51:06.840Z,23.85
2017-07-12T00:51:32.425Z,23.85
2017-07-12T00:51:58.000Z,23.89
2017-07-12T00:52:23.564Z,23.87
2017-07-12T00:52:49.234Z,23.79
2017-07-12T00:53:14.790Z,23.86
2017-07-12T00:53:40.418Z,23.87
2017-07-12T00:54:05.941Z,23.79
2017-07-12T00:54:31.496Z,23.87
2017-07-12T00:54:57.067Z,23.89
2017-07-12T00:55:22.631Z,23.85
2017-07-12T00:55:48.192Z,23.79
2017-07-12T00:56:13.745Z,23.85
2017-07-12T00:56:39.322Z,23.85
2017-07-12T00:57:04.894Z,23.76
2017-07-12T00:57:30.470Z,23.85
2017-07-12T00:57:56.056Z,23.89
2017-07-12T00:58:21.637Z,23.82
2017-07-12T00:58:47.228Z,23.85
2017-07-12T00:59:12.797Z,23.76
2017-07-12T00:59:38.360Z,23.85
2017-07-12T01:00:03.914Z,23.85
2017-07-12T01:00:29.506Z,23.82
2017-07-12T01:00:55.081Z,23.83
2017-07-12T01:01:20.660Z,23.86
2017-07-12T01:01:46.365Z,23.89
2017-07-12T01:02:11.905Z,23.8
2017-07-12T01:02:37.519Z,23.89
2017-07-12T01:03:03.082Z,23.86
2017-07-12T01:03:28.648Z,23.87
2017-07-12T01:03:54.211Z,23.85
2017-07-12T01:04:19.818Z,23.87
2017-07-12T01:04:45.461Z,23.85
2017-07-12T01:05:11.022Z,23.85
2017-07-12T01:05:36.583Z,23.79
2017-07-12T01:06:02.145Z,23.79
2017-07-12T01:06:27.725Z,23.8
2017-07-12T01:06:53.280Z,23.95
2017-07-12T01:07:18.914Z,23.83
2017-07-12T01:07:44.465Z,23.92
2017-07-12T01:08:10.023Z,23.83
2017-07-12T01:08:35.589Z,23.79
2017-07-12T01:09:01.156Z,23.92
2017-07-12T01:09:26.762Z,23.87
2017-07-12T01:09:52.372Z,23.75
2017-07-12T01:10:17.966Z,23.83
2017-07-12T01:10:43.551Z,23.85
2017-07-12T01:11:09.113Z,23.77
2017-07-12T01:11:34.670Z,23.85
2017-07-12T01:12:00.254Z,23.82
2017-07-12T01:12:25.818Z,23.79
2017-07-12T01:12:51.371Z,23.82
2017-07-12T01:13:16.927Z,23.8
2017-07-12T01:13:42.530Z,23.83
2017-07-12T01:14:08.123Z,23.85
2017-07-12T01:14:33.683Z,23.85
2017-07-12T01:14:59.282Z,23.85
2017-07-12T01:15:24.850Z,23.9
2017-07-12T01:15:50.410Z,23.83
2017-07-12T01:16:16.041Z,23.85
2017-07-12T01:16:41.626Z,23.85
2017-07-12T01:17:07.183Z,23.89
2017-07-12T01:17:32.739Z,23.86
2017-07-12T01:17:58.293Z,23.85
2017-07-12T01:18:23.860Z,23.82
2017-07-12T01:18:49.445Z,23.79
2017-07-12T01:19:15.000Z,23.83
2017-07-12T01:19:40.557Z,23.87
2017-07-12T01:20:06.111Z,23.86
2017-07-12T01:20:31.746Z,23.79
2017-07-12T01:20:57.305Z,23.8
2017-07-12T01:21:22.855Z,23.85
2017-07-12T01:21:48.403Z,23.85
2017-07-12T01:22:13.955Z,23.86
2017-07-12T01:22:39.511Z,23.83
2017-07-12T01:23:05.091Z,23.89
2017-07-12T01:23:30.642Z,23.82
2017-07-12T01:23:56.360Z,23.85
2017-07-12T01:24:21.961Z,23.76
2017-07-12T01:24:47.525Z,23.86
2017-07-12T01:25:13.170Z,23.79
2017-07-12T01:25:38.735Z,23.87
2017-07-12T01:26:04.300Z,23.79
2017-07-12T01:26:29.886Z,23.82
2017-07-12T01:26:55.445Z,23.86
2017-07-12T01:27:21.001Z,23.85
2017-07-12T01:27:46.572Z,23.8
2017-07-12T01:28:12.130Z,23.83
2017-07-12T01:28:37.710Z,23.94
2017-07-12T01:29:03.276Z,23.83
2017-07-12T01:29:28.823Z,23.82
2017-07-12T01:29:54.385Z,23.89
2017-07-12T01:30:19.941Z,23.85
2017-07-12T01:30:45.496Z,23.87
2017-07-12T01:31:11.057Z,23.85
2017-07-12T01:31:36.623Z,23.83
2017-07-12T01:32:02.185Z,23.83
2017-07-12T01:32:27.762Z,23.82
2017-07-12T01:32:53.304Z,23.77
2017-07-12T01:33:18.872Z,23.9
2017-07-12T01:33:44.437Z,23.89
2017-07-12T01:34:09.992Z,23.8
2017-07-12T01:34:35.577Z,23.89
2017-07-12T01:35:01.147Z,23.89
2017-07-12T01:35:26.725Z,23.82
2017-07-12T01:35:52.282Z,23.82
2017-07-12T01:36:17.837Z,23.82
2017-07-12T01:36:43.492Z,23.82
2017-07-12T01:37:09.134Z,23.92
2017-07-12T01:37:34.696Z,23.77
2017-07-12T01:38:00.245Z,23.89
2017-07-12T01:38:25.809Z,23.8
2017-07-12T01:38:51.393Z,23.79
2017-07-12T01:39:16.973Z,23.86
2017-07-12T01:39:42.532Z,23.8
2017-07-12T01:40:08.194Z,23.83
2017-07-12T01:40:33.757Z,23.87
2017-07-12T01:40:59.311Z,23.82
2017-07-12T01:41:24.935Z,23.89
2017-07-12T01:41:50.483Z,23.76
2017-07-12T01:42:16.063Z,23.79
2017-07-12T01:42:41.671Z,23.82
2017-07-12T01:43:07.318Z,23.85
2017-07-12T01:43:32.891Z,23.79
2017-07-12T01:43:58.463Z,23.82
2017-07-12T01:44:24.014Z,23.87
2017-07-12T01:44:49.561Z,23.85
2017-07-12T01:45:15.135Z,23.79
2017-07-12T01:45:40.693Z,23.9
2017-07-12T01:46:06.295Z,23.89
2017-07-12T01:46:31.860Z,23.82
2017-07-12T01:46:57.413Z,23.82
2017-07-12T01:47:22.971Z,23.86
2017-07-12T01:47:48.582Z,23.89
2017-07-12T01:48:14.199Z,23.8
2017-07-12T01:48:39.764Z,23.89
2017-07-12T01:49:05.388Z,23.82
2017-07-12T01:49:31.009Z,23.8
2017-07-12T01:49:56.565Z,23.85
2017-07-12T01:50:22.132Z,23.82
2017-07-12T01:50:47.714Z,23.83
2017-07-12T01:51:13.285Z,23.9
2017-07-12T01:51:38.859Z,23.8
2017-07-12T01:52:04.425Z,23.82
2017-07-12T01:52:29.975Z,23.82
2017-07-12T01:52:55.527Z,23.76
2017-07-12T01:53:21.092Z,23.8
2017-07-12T01:53:46.682Z,23.82
2017-07-12T01:54:12.260Z,23.86
2017-07-12T01:54:37.810Z,23.79
2017-07-12T01:55:03.372Z,23.8
2017-07-12T01:55:28.940Z,23.8
2017-07-12T01:55:54.498Z,23.82
2017-07-12T01:56:20.056Z,23.87
2017-07-12T01:56:45.617Z,23.8
2017-07-12T01:57:11.199Z,23.8
2017-07-12T01:57:36.773Z,23.85
2017-07-12T01:58:02.353Z,23.83
2017-07-12T01:58:27.915Z,23.87
2017-07-12T01:58:53.554Z,23.86
2017-07-12T01:59:19.106Z,23.85
2017-07-12T01:59:44.684Z,23.89
2017-07-12T02:00:10.250Z,23.83
2017-07-12T02:00:35.832Z,23.89
2017-07-12T02:01:01.392Z,23.8
2017-07-12T02:01:26.982Z,23.86
2017-07-12T02:01:52.610Z,23.87
2017-07-12T02:02:18.264Z,23.82
2017-07-12T02:02:43.873Z,23.9
2017-07-12T02:03:09.438Z,23.82
2017-07-12T02:03:35.005Z,23.87
2017-07-12T02:04:00.557Z,23.87
2017-07-12T02:04:26.102Z,23.83
2017-07-12T02:04:51.708Z,23.8
2017-07-12T02:05:17.266Z,23.92
2017-07-12T02:05:42.807Z,23.76
2017-07-12T02:06:08.372Z,23.85
2017-07-12T02:06:34.013Z,23.9
2017-07-12T02:06:59.596Z,23.79
2017-07-12T02:07:25.181Z,23.82
2017-07-12T02:07:50.746Z,23.83
2017-07-12T02:08:16.314Z,23.85
2017-07-12T02:08:41.894Z,23.79
2017-07-12T02:09:07.525Z,23.8
2017-07-12T02:09:33.097Z,23.89
2017-07-12T02:09:58.651Z,23.85
2017-07-12T02:10:24.238Z,23.92
2017-07-12T02:10:49.805Z,23.83
2017-07-12T02:11:15.369Z,23.89
2017-07-12T02:11:40.930Z,23.86
2017-07-12T02:12:06.492Z,23.89
2017-07-12T02:12:32.050Z,23.82
2017-07-12T02:12:57.685Z,23.85
2017-07-12T02:13:23.250Z,23.77
2017-07-12T02:13:48.818Z,23.77
2017-07-12T02:14:14.376Z,23.79
2017-07-12T02:14:39.945Z,23.82
2017-07-12T02:15:05.530Z,23.79
2017-07-12T02:15:31.174Z,23.77
2017-07-12T02:15:56.747Z,23.77
2017-07-12T02:16:22.312Z,23.77
2017-07-12T02:16:47.956Z,23.79
2017-07-12T02:17:13.522Z,23.79
2017-07-12T02:17:39.090Z,23.83
2017-07-12T02:18:04.666Z,23.86
2017-07-12T02:18:30.213Z,23.85
2017-07-12T02:18:55.816Z,23.86
2017-07-12T02:19:21.389Z,23.86
2017-07-12T02:19:46.935Z,23.89
2017-07-12T02:20:12.496Z,23.76
2017-07-12T02:20:38.079Z,23.8
2017-07-12T02:21:03.663Z,23.87
2017-07-12T02:21:29.184Z,23.8
2017-07-12T02:21:54.777Z,23.82
2017-07-12T02:22:20.422Z,23.86
2017-07-12T02:22:45.961Z,23.87
2017-07-12T02:23:11.514Z,23.79
2017-07-12T02:23:37.073Z,23.82
2017-07-12T02:24:02.658Z,23.87
2017-07-12T02:24:28.204Z,23.79
2017-07-12T02:24:53.763Z,23.8
2017-07-12T02:25:19.417Z,23.87
2017-07-12T02:25:44.991Z,23.79
2017-07-12T02:26:10.543Z,23.8
2017-07-12T02:26:36.114Z,23.83
2017-07-12T02:27:01.714Z,23.79
2017-07-12T02:27:27.401Z,23.79
2017-07-12T02:27:52.964Z,23.9
2017-07-12T02:28:18.523Z,23.85
2017-07-12T02:28:44.083Z,23.77
2017-07-12T02:29:09.724Z,23.82
2017-07-12T02:29:35.291Z,23.82
2017-07-12T02:30:00.865Z,23.82
2017-07-12T02:30:26.433Z,23.72
2017-07-12T02:30:52.017Z,23.9
2017-07-12T02:31:17.614Z,23.79
2017-07-12T02:31:43.196Z,23.87
2017-07-12T02:32:08.762Z,23.82
2017-07-12T02:32:34.340Z,23.79
2017-07-12T02:32:59.952Z,23.86
2017-07-12T02:33:25.510Z,23.75
2017-07-12T02:33:51.070Z,23.77
2017-07-12T02:34:16.662Z,23.77
2017-07-12T02:34:42.231Z,23.82
2017-07-12T02:35:07.801Z,23.86
2017-07-12T02:35:33.381Z,23.83
2017-07-12T02:35:58.955Z,23.82
2017-07-12T02:36:24.515Z,23.86
2017-07-12T02:36:50.071Z,23.77
2017-07-12T02:37:15.631Z,23.77
2017-07-12T02:37:41.209Z,23.87
2017-07-12T02:38:06.761Z,23.75
2017-07-12T02:38:32.311Z,23.8
2017-07-12T02:38:57.883Z,23.76
2017-07-12T02:39:23.461Z,23.82
2017-07-12T02:39:49.034Z,23.86
2017-07-12T02:40:14.635Z,23.87
2017-07-12T02:40:40.188Z,23.79
2017-07-12T02:41:05.740Z,23.83
2017-07-12T02:41:31.302Z,23.79
2017-07-12T02:41:56.847Z,23.83
2017-07-12T02:42:22.444Z,23.86
2017-07-12T02:42:48.054Z,23.77
2017-07-12T02:43:13.632Z,23.85
2017-07-12T02:43:39.187Z,23.8
2017-07-12T02:44:04.751Z,23.82
2017-07-12T02:44:30.316Z,23.82
2017-07-12T02:44:55.901Z,23.79
2017-07-12T02:45:21.525Z,23.83
2017-07-12T02:45:47.111Z,23.85
2017-07-12T02:46:12.682Z,23.82
2017-07-12T02:46:38.234Z,23.83
2017-07-12T02:47:03.907Z,23.76
2017-07-12T02:47:29.467Z,23.86
2017-07-12T02:47:55.074Z,23.86
2017-07-12T02:48:20.657Z,23.79
2017-07-12T02:48:46.254Z,23.79
2017-07-12T02:49:11.805Z,23.82
2017-07-12T02:49:37.372Z,23.82
2017-07-12T02:50:02.939Z,23.8
2017-07-12T02:50:28.492Z,23.77
2017-07-12T02:50:54.125Z,23.82
2017-07-12T02:51:19.741Z,23.79
2017-07-12T02:51:45.315Z,23.77
2017-07-12T02:52:10.860Z,23.85
2017-07-12T02:52:36.428Z,23.75
2017-07-12T02:53:01.991Z,23.82
2017-07-12T02:53:27.566Z,23.77
2017-07-12T02:53:53.156Z,23.8
2017-07-12T02:54:18.711Z,23.75
2017-07-12T02:54:44.346Z,23.76
2017-07-12T02:55:09.905Z,23.82
2017-07-12T02:55:35.477Z,23.8
2017-07-12T02:56:01.047Z,23.82
2017-07-12T02:56:26.663Z,23.72
2017-07-12T02:56:52.227Z,23.77
2017-07-12T02:57:17.798Z,23.76
2017-07-12T02:57:43.354Z,23.77
2017-07-12T02:58:08.972Z,23.77
2017-07-12T02:58:34.540Z,23.72
2017-07-12T02:59:00.145Z,23.72
2017-07-12T02:59:25.683Z,23.82
2017-07-12T02:59:51.228Z,23.79
2017-07-12T03:00:16.797Z,23.76
2017-07-12T03:00:42.349Z,23.79
2017-07-12T03:01:07.914Z,23.75
2017-07-12T03:01:33.479Z,23.82
2017-07-12T03:01:59.025Z,23.76
2017-07-12T03:02:24.602Z,23.79
2017-07-12T03:02:50.168Z,23.82
2017-07-12T03:03:15.782Z,23.75
2017-07-12T03:03:41.349Z,23.82
2017-07-12T03:04:07.022Z,23.77
2017-07-12T03:04:32.576Z,23.82
2017-07-12T03:04:58.132Z,23.75
2017-07-12T03:05:23.715Z,23.76
2017-07-12T03:05:49.265Z,23.72
2017-07-12T03:06:14.823Z,23.8
2017-07-12T03:06:40.500Z,23.75
2017-07-12T03:07:06.147Z,23.75
2017-07-12T03:07:31.709Z,23.79
2017-07-12T03:07:57.282Z,23.8
2017-07-12T03:08:22.845Z,23.82
2017-07-12T03:08:48.396Z,23.8
2017-07-12T03:09:13.955Z,23.72
2017-07-12T03:09:39.522Z,23.76
2017-07-12T03:10:05.086Z,23.77
2017-07-12T03:10:30.644Z,23.72
2017-07-12T03:10:56.216Z,23.77
2017-07-12T03:11:21.783Z,23.77
2017-07-12T03:11:47.372Z,23.82
2017-07-12T03:12:13.052Z,23.77
2017-07-12T03:12:38.606Z,23.79
2017-07-12T03:13:04.159Z,23.8
2017-07-12T03:13:29.816Z,23.77
2017-07-12T03:13:55.383Z,23.76
2017-07-12T03:14:20.956Z,23.82
2017-07-12T03:14:46.547Z,23.77
2017-07-12T03:15:12.133Z,23.83
2017-07-12T03:15:37.715Z,23.77
2017-07-12T03:16:03.274Z,23.79
2017-07-12T03:16:28.856Z,23.72
2017-07-12T03:16:54.428Z,23.79
2017-07-12T03:17:20.002Z,23.77
2017-07-12T03:17:45.560Z,23.77
2017-07-12T03:18:11.111Z,23.77
2017-07-12T03:18:36.723Z,23.79
2017-07-12T03:19:02.282Z,23.72
2017-07-12T03:19:27.844Z,23.8
2017-07-12T03:19:53.442Z,23.72
2017-07-12T03:20:20.049Z,23.82
2017-07-12T03:20:45.708Z,23.77
2017-07-12T03:21:11.341Z,23.79
2017-07-12T03:21:36.921Z,23.77
2017-07-12T03:22:02.491Z,23.76
2017-07-12T03:22:28.048Z,23.72
2017-07-12T03:22:53.604Z,23.77
2017-07-12T03:23:19.151Z,23.79
2017-07-12T03:23:44.719Z,23.76
2017-07-12T03:24:10.274Z,23.77
2017-07-12T03:24:35.870Z,23.77
2017-07-12T03:25:01.595Z,23.79
2017-07-12T03:25:27.140Z,23.75
2017-07-12T03:25:52.714Z,23.77
2017-07-12T03:26:18.289Z,23.79
2017-07-12T03:26:43.855Z,23.75
2017-07-12T03:27:09.428Z,23.82
2017-07-12T03:27:35.009Z,23.8
2017-07-12T03:28:00.541Z,23.77
2017-07-12T03:28:26.103Z,23.77
2017-07-12T03:28:51.670Z,23.75
2017-07-12T03:29:17.267Z,23.77
2017-07-12T03:29:42.845Z,23.79
2017-07-12T03:30:08.387Z,23.75
2017-07-12T03:30:33.959Z,23.75
2017-07-12T03:30:59.573Z,23.77
2017-07-12T03:31:25.163Z,23.76
2017-07-12T03:31:50.738Z,23.72
2017-07-12T03:32:16.315Z,23.72
2017-07-12T03:32:41.997Z,23.79
2017-07-12T03:33:07.553Z,23.82
2017-07-12T03:33:33.115Z,23.79
2017-07-12T03:33:58.679Z,23.77
2017-07-12T03:34:24.299Z,23.8
2017-07-12T03:34:49.883Z,23.75
2017-07-12T03:35:15.488Z,23.75
2017-07-12T03:35:41.078Z,23.77
2017-07-12T03:36:06.650Z,23.75
2017-07-12T03:36:32.216Z,23.7
2017-07-12T03:36:57.769Z,23.72
2017-07-12T03:37:23.352Z,23.71
2017-07-12T03:37:48.916Z,23.76
2017-07-12T03:38:14.536Z,23.79
2017-07-12T03:38:40.091Z,23.77
2017-07-12T03:39:05.651Z,23.71
2017-07-12T03:39:31.299Z,23.75
2017-07-12T03:39:56.855Z,23.76
2017-07-12T03:40:22.432Z,23.8
2017-07-12T03:40:48.000Z,23.72
2017-07-12T03:41:13.576Z,23.77
2017-07-12T03:41:39.126Z,23.77
2017-07-12T03:42:04.764Z,23.77
2017-07-12T03:42:30.339Z,23.76
2017-07-12T03:42:55.943Z,23.79
2017-07-12T03:43:21.504Z,23.76
2017-07-12T03:43:47.061Z,23.8
2017-07-12T03:44:12.634Z,23.72
2017-07-12T03:44:38.204Z,23.77
2017-07-12T03:45:03.766Z,23.72
2017-07-12T03:45:29.336Z,23.79
2017-07-12T03:45:54.905Z,23.77
2017-07-12T03:46:20.483Z,23.72
2017-07-12T03:46:46.066Z,23.72
2017-07-12T03:47:11.641Z,23.75
2017-07-12T03:47:37.248Z,23.77
2017-07-12T03:48:02.785Z,23.72
2017-07-12T03:48:28.361Z,23.75
2017-07-12T03:48:53.948Z,23.83
2017-07-12T03:49:19.513Z,23.75
2017-07-12T03:49:45.075Z,23.7
2017-07-12T03:50:10.645Z,23.79
2017-07-12T03:50:36.193Z,23.76
2017-07-12T03:51:01.757Z,23.72
2017-07-12T03:51:27.312Z,23.79
2017-07-12T03:51:52.876Z,23.76
2017-07-12T03:52:18.447Z,23.79
2017-07-12T03:52:44.024Z,23.76
2017-07-12T03:53:09.592Z,23.76
2017-07-12T03:53:35.205Z,23.77
2017-07-12T03:54:00.766Z,23.75
2017-07-12T03:54:26.318Z,23.68
2017-07-12T03:54:51.911Z,23.76
2017-07-12T03:55:17.464Z,23.72
2017-07-12T03:55:43.049Z,23.8
2017-07-12T03:56:08.678Z,23.7
2017-07-12T03:56:34.275Z,23.77
2017-07-12T03:56:59.838Z,23.76
2017-07-12T03:57:25.419Z,23.76
2017-07-12T03:57:51.053Z,23.7
2017-07-12T03:58:16.624Z,23.8
2017-07-12T03:58:42.188Z,23.75
2017-07-12T03:59:07.770Z,23.76
2017-07-12T03:59:33.462Z,23.79
2017-07-12T03:59:59.015Z,23.71
2017-07-12T04:00:24.606Z,23.71
2017-07-12T04:00:50.178Z,23.7
2017-07-12T04:01:15.744Z,23.82
2017-07-12T04:01:41.301Z,23.7
2017-07-12T04:02:06.862Z,23.68
2017-07-12T04:02:32.432Z,23.77
2017-07-12T04:02:58.048Z,23.76
2017-07-12T04:03:23.605Z,23.77
2017-07-12T04:03:49.159Z,23.77
2017-07-12T04:04:14.763Z,23.71
2017-07-12T04:04:40.328Z,23.76
2017-07-12T04:05:05.883Z,23.71
2017-07-12T04:05:31.455Z,23.77
2017-07-12T04:05:57.013Z,23.71
2017-07-12T04:06:22.624Z,23.68
2017-07-12T04:06:48.182Z,23.75
2017-07-12T04:07:13.857Z,23.77
2017-07-12T04:07:39.426Z,23.77
2017-07-12T04:08:05.032Z,23.7
2017-07-12T04:08:30.710Z,23.76
2017-07-12T04:08:56.269Z,23.77
2017-07-12T04:09:21.824Z,23.76
2017-07-12T04:09:47.393Z,23.75
2017-07-12T04:10:12.970Z,23.75
2017-07-12T04:10:38.539Z,23.75
2017-07-12T04:11:04.104Z,23.75
2017-07-12T04:11:29.664Z,23.77
2017-07-12T04:11:55.245Z,23.77
2017-07-12T04:12:20.810Z,23.72
2017-07-12T04:12:46.396Z,23.71
2017-07-12T04:13:11.971Z,23.76
2017-07-12T04:13:37.525Z,23.76
2017-07-12T04:14:03.102Z,23.72
2017-07-12T04:14:28.648Z,23.72
2017-07-12T04:14:54.215Z,23.77
2017-07-12T04:15:19.786Z,23.77
2017-07-12T04:15:45.348Z,23.71
2017-07-12T04:16:10.901Z,23.76
2017-07-12T04:16:36.473Z,23.75
2017-07-12T04:17:02.045Z,23.71
2017-07-12T04:17:27.658Z,23.76
2017-07-12T04:17:53.250Z,23.76
2017-07-12T04:18:18.804Z,23.77
2017-07-12T04:18:44.373Z,23.76
2017-07-12T04:19:10.001Z,23.77
2017-07-12T04:19:35.567Z,23.75
2017-07-12T04:20:01.124Z,23.7
2017-07-12T04:20:26.762Z,23.75
2017-07-12T04:20:52.307Z,23.75
2017-07-12T04:21:17.864Z,23.68
2017-07-12T04:21:43.445Z,23.77
2017-07-12T04:22:09.009Z,23.76
2017-07-12T04:22:34.579Z,23.75
2017-07-12T04:23:00.158Z,23.71
2017-07-12T04:23:25.717Z,23.71
2017-07-12T04:23:51.281Z,23.7
2017-07-12T04:24:16.824Z,23.71
2017-07-12T04:24:42.400Z,23.75
2017-07-12T04:25:08.062Z,23.77
2017-07-12T04:25:33.710Z,23.77
2017-07-12T04:25:59.261Z,23.72
2017-07-12T04:26:24.820Z,23.72
2017-07-12T04:26:50.390Z,23.72
2017-07-12T04:27:15.956Z,23.75
2017-07-12T04:27:41.513Z,23.76
2017-07-12T04:28:07.071Z,23.75
2017-07-12T04:28:32.631Z,23.67
2017-07-12T04:28:58.200Z,23.76
2017-07-12T04:29:23.777Z,23.76
2017-07-12T04:29:49.330Z,23.75
2017-07-12T04:30:14.912Z,23.71
2017-07-12T04:30:40.602Z,23.8
2017-07-12T04:31:06.156Z,23.67
2017-07-12T04:31:31.723Z,23.72
2017-07-12T04:31:57.295Z,23.76
2017-07-12T04:32:22.891Z,23.75
2017-07-12T04:32:48.455Z,23.76
2017-07-12T04:33:14.010Z,23.72
2017-07-12T04:33:39.577Z,23.71
2017-07-12T04:34:05.152Z,23.7
2017-07-12T04:34:30.721Z,23.71
2017-07-12T04:34:56.292Z,23.77
2017-07-12T04:35:21.906Z,23.76
2017-07-12T04:35:47.505Z,23.75
2017-07-12T04:36:13.065Z,23.76
2017-07-12T04:36:38.617Z,23.7
2017-07-12T04:37:04.184Z,23.71
2017-07-12T04:37:29.868Z,23.68
2017-07-12T04:37:55.420Z,23.76
2017-07-12T04:38:20.987Z,23.76
2017-07-12T04:38:46.574Z,23.71
2017-07-12T04:39:12.158Z,23.72
2017-07-12T04:39:37.717Z,23.7
2017-07-12T04:40:03.315Z,23.75
2017-07-12T04:40:28.872Z,23.72
2017-07-12T04:40:54.457Z,23.7
2017-07-12T04:41:20.086Z,23.76
2017-07-12T04:41:45.639Z,23.71
2017-07-12T04:42:11.212Z,23.71
2017-07-12T04:42:36.787Z,23.76
2017-07-12T04:43:02.342Z,23.76
2017-07-12T04:43:27.903Z,23.76
2017-07-12T04:43:53.468Z,23.76
2017-07-12T04:44:19.046Z,23.72
2017-07-12T04:44:44.635Z,23.72
2017-07-12T04:45:38.480Z,23.75
2017-07-12T04:46:04.044Z,23.7
2017-07-12T04:46:29.634Z,23.76
2017-07-12T04:46:55.192Z,23.71
2017-07-12T04:47:20.752Z,23.72
2017-07-12T04:47:46.334Z,23.75
2017-07-12T04:48:11.900Z,23.71
2017-07-12T04:48:37.459Z,23.75
2017-07-12T04:49:03.129Z,23.71
2017-07-12T04:49:28.780Z,23.76
2017-07-12T04:49:54.352Z,23.76
2017-07-12T04:50:19.914Z,23.7
2017-07-12T04:50:45.458Z,23.76
2017-07-12T04:51:11.113Z,23.76
2017-07-12T04:51:36.675Z,23.76
2017-07-12T04:52:02.231Z,23.71
2017-07-12T04:52:27.791Z,23.72
2017-07-12T04:52:53.381Z,23.76
2017-07-12T04:53:19.018Z,23.75
2017-07-12T04:53:44.571Z,23.7
2017-07-12T04:54:10.119Z,23.76
2017-07-12T04:54:35.668Z,23.76
2017-07-12T04:55:01.230Z,23.65
2017-07-12T04:55:26.796Z,23.76
2017-07-12T04:55:52.374Z,23.76
2017-07-12T04:56:17.940Z,23.71
2017-07-12T04:56:43.501Z,23.68
2017-07-12T04:57:09.046Z,23.72
2017-07-12T04:57:34.603Z,23.77
2017-07-12T04:58:00.150Z,23.75
2017-07-12T04:58:25.795Z,23.76
2017-07-12T04:58:51.348Z,23.72
2017-07-12T04:59:16.959Z,23.72
2017-07-12T04:59:42.524Z,23.75
2017-07-12T05:00:08.095Z,23.76
2017-07-12T05:00:33.654Z,23.72
2017-07-12T05:00:59.243Z,23.72
2017-07-12T05:01:24.796Z,23.76
2017-07-12T05:01:50.407Z,23.76
2017-07-12T05:02:15.951Z,23.76
2017-07-12T05:02:41.524Z,23.76
2017-07-12T05:03:07.075Z,23.72
2017-07-12T05:03:32.646Z,23.72
2017-07-12T05:03:58.210Z,23.68
2017-07-12T05:04:23.770Z,23.75
2017-07-12T05:04:49.492Z,23.71
2017-07-12T05:05:15.053Z,23.7
2017-07-12T05:05:40.604Z,23.71
2017-07-12T05:06:06.149Z,23.77
2017-07-12T05:06:31.717Z,23.76
2017-07-12T05:06:57.269Z,23.71
2017-07-12T05:07:22.855Z,23.72
2017-07-12T05:07:48.421Z,23.71
2017-07-12T05:08:14.003Z,23.72
2017-07-12T05:08:39.567Z,23.75
2017-07-12T05:09:05.118Z,23.75
2017-07-12T05:09:30.677Z,23.71
2017-07-12T05:09:56.238Z,23.7
2017-07-12T05:10:21.802Z,23.79
2017-07-12T05:10:47.370Z,23.71
2017-07-12T05:11:13.104Z,23.72
2017-07-12T05:11:38.857Z,23.75
2017-07-12T05:12:04.416Z,23.7
2017-07-12T05:12:29.978Z,23.76
2017-07-12T05:12:55.582Z,23.72
2017-07-12T05:13:21.153Z,23.67
2017-07-12T05:13:46.726Z,23.76
2017-07-12T05:14:12.273Z,23.72
2017-07-12T05:15:11.180Z,23.72
2017-07-12T05:16:20.100Z,23.76
2017-07-12T05:16:45.660Z,23.72
2017-07-12T05:17:11.227Z,23.76
2017-07-12T05:17:36.787Z,23.68
2017-07-12T05:18:02.408Z,23.71
2017-07-12T05:18:27.984Z,23.7
2017-07-12T05:18:53.540Z,23.72
2017-07-12T05:19:19.108Z,23.7
2017-07-12T05:19:44.675Z,23.76
2017-07-12T05:20:10.235Z,23.7
2017-07-12T05:20:35.885Z,23.76
2017-07-12T05:21:01.443Z,23.7
2017-07-12T05:21:27.009Z,23.71
2017-07-12T05:21:52.560Z,23.75
2017-07-12T05:22:18.205Z,23.7
2017-07-12T05:22:43.756Z,23.7
2017-07-12T05:23:09.351Z,23.71
2017-07-12T05:23:34.912Z,23.72
2017-07-12T05:24:00.473Z,23.68
2017-07-12T05:24:26.036Z,23.7
2017-07-12T05:24:51.624Z,23.7
2017-07-12T05:25:17.178Z,23.72
2017-07-12T05:25:42.715Z,23.75
2017-07-12T05:26:08.277Z,23.76
2017-07-12T05:26:33.845Z,23.72
2017-07-12T05:26:59.394Z,23.7
2017-07-12T05:27:24.968Z,23.75
2017-07-12T05:27:50.518Z,23.79
2017-07-12T05:28:16.160Z,23.75
2017-07-12T05:28:41.721Z,23.71
2017-07-12T05:29:07.284Z,23.72
2017-07-12T05:29:32.896Z,23.71
2017-07-12T05:29:58.477Z,23.76
2017-07-12T05:30:24.034Z,23.79
2017-07-12T05:30:49.615Z,23.71
2017-07-12T05:31:15.191Z,23.68
2017-07-12T05:31:40.751Z,23.68
2017-07-12T05:32:06.313Z,23.67
2017-07-12T05:32:31.874Z,23.79